sensor_id;sensor_type;location;lat;lon;timestamp;P1;durP1;ratioP1;P2;durP2;ratioP2
6755;SDS011;3415;51.148;7.014;2022-12-16T00:01:07;27.60;;;11.60;;
6755;SDS011;3415;51.148;7.014;2022-12-16T00:03:37;40.40;;;12.93;;
6755;SDS011;3415;51.148;7.014;2022-12-16T00:06:05;34.63;;;13.37;;
6755;SDS011;3415;51.148;7.014;2022-12-16T00:08:34;37.63;;;12.03;;
6755;SDS011;3415;51.148;7.014;2022-12-16T00:11:04;29.77;;;11.03;;
6755;SDS011;3415;51.148;7.014;2022-12-16T00:13:32;29.73;;;12.87;;
6755;SDS011;3415;51.148;7.014;2022-12-16T00:16:02;28.13;;;10.13;;
6755;SDS011;3415;51.148;7.014;2022-12-16T00:18:31;19.47;;;8.87;;
6755;SDS011;3415;51.148;7.014;2022-12-16T00:20:59;24.27;;;10.03;;
6755;SDS011;3415;51.148;7.014;2022-12-16T00:23:26;37.17;;;11.93;;
6755;SDS011;3415;51.148;7.014;2022-12-16T00:25:54;29.33;;;10.10;;
6755;SDS011;3415;51.148;7.014;2022-12-16T00:28:21;28.90;;;10.97;;
6755;SDS011;3415;51.148;7.014;2022-12-16T00:30:49;33.90;;;10.77;;
6755;SDS011;3415;51.148;7.014;2022-12-16T00:33:18;29.50;;;9.23;;
6755;SDS011;3415;51.148;7.014;2022-12-16T00:35:48;26.70;;;9.67;;
6755;SDS011;3415;51.148;7.014;2022-12-16T00:38:16;41.57;;;11.70;;
6755;SDS011;3415;51.148;7.014;2022-12-16T00:40:44;29.03;;;10.67;;
6755;SDS011;3415;51.148;7.014;2022-12-16T00:43:12;16.93;;;8.93;;
6755;SDS011;3415;51.148;7.014;2022-12-16T00:45:39;35.33;;;10.87;;
6755;SDS011;3415;51.148;7.014;2022-12-16T00:48:07;25.73;;;10.30;;
6755;SDS011;3415;51.148;7.014;2022-12-16T00:50:34;24.77;;;10.93;;
6755;SDS011;3415;51.148;7.014;2022-12-16T00:53:02;21.10;;;8.20;;
6755;SDS011;3415;51.148;7.014;2022-12-16T00:55:31;40.20;;;12.43;;
6755;SDS011;3415;51.148;7.014;2022-12-16T00:57:58;46.17;;;9.13;;
6755;SDS011;3415;51.148;7.014;2022-12-16T01:00:25;29.83;;;10.30;;
6755;SDS011;3415;51.148;7.014;2022-12-16T01:02:52;27.83;;;9.80;;
6755;SDS011;3415;51.148;7.014;2022-12-16T01:05:20;17.37;;;8.20;;
6755;SDS011;3415;51.148;7.014;2022-12-16T01:07:50;20.37;;;9.40;;
6755;SDS011;3415;51.148;7.014;2022-12-16T01:10:18;25.00;;;9.13;;
6755;SDS011;3415;51.148;7.014;2022-12-16T01:12:47;48.43;;;10.30;;
6755;SDS011;3415;51.148;7.014;2022-12-16T01:15:14;32.30;;;10.60;;
6755;SDS011;3415;51.148;7.014;2022-12-16T01:17:42;20.40;;;10.17;;
6755;SDS011;3415;51.148;7.014;2022-12-16T01:20:09;27.27;;;8.80;;
6755;SDS011;3415;51.148;7.014;2022-12-16T01:22:37;31.63;;;7.90;;
6755;SDS011;3415;51.148;7.014;2022-12-16T01:25:05;21.40;;;8.70;;
6755;SDS011;3415;51.148;7.014;2022-12-16T01:27:33;28.67;;;9.37;;
6755;SDS011;3415;51.148;7.014;2022-12-16T01:30:01;25.43;;;9.57;;
6755;SDS011;3415;51.148;7.014;2022-12-16T01:32:29;27.30;;;9.47;;
6755;SDS011;3415;51.148;7.014;2022-12-16T01:34:56;19.63;;;8.87;;
6755;SDS011;3415;51.148;7.014;2022-12-16T01:37:23;30.63;;;11.27;;
6755;SDS011;3415;51.148;7.014;2022-12-16T01:39:51;27.63;;;10.00;;
6755;SDS011;3415;51.148;7.014;2022-12-16T01:42:18;23.70;;;9.70;;
6755;SDS011;3415;51.148;7.014;2022-12-16T01:44:48;23.73;;;10.30;;
6755;SDS011;3415;51.148;7.014;2022-12-16T01:47:20;24.17;;;10.17;;
6755;SDS011;3415;51.148;7.014;2022-12-16T01:49:52;22.27;;;9.80;;
6755;SDS011;3415;51.148;7.014;2022-12-16T01:52:22;20.30;;;11.00;;
6755;SDS011;3415;51.148;7.014;2022-12-16T01:54:55;26.90;;;9.40;;
6755;SDS011;3415;51.148;7.014;2022-12-16T01:57:28;21.93;;;7.60;;
6755;SDS011;3415;51.148;7.014;2022-12-16T02:00:02;21.80;;;8.30;;
6755;SDS011;3415;51.148;7.014;2022-12-16T02:02:32;33.27;;;7.87;;
6755;SDS011;3415;51.148;7.014;2022-12-16T02:05:00;26.70;;;11.27;;
6755;SDS011;3415;51.148;7.014;2022-12-16T02:07:49;14.93;;;7.80;;
6755;SDS011;3415;51.148;7.014;2022-12-16T02:10:25;19.17;;;8.00;;
6755;SDS011;3415;51.148;7.014;2022-12-16T02:13:05;20.20;;;8.27;;
6755;SDS011;3415;51.148;7.014;2022-12-16T02:15:46;14.67;;;7.77;;
6755;SDS011;3415;51.148;7.014;2022-12-16T02:18:21;31.30;;;8.23;;
6755;SDS011;3415;51.148;7.014;2022-12-16T02:24:22;22.83;;;8.43;;
6755;SDS011;3415;51.148;7.014;2022-12-16T02:30:30;17.13;;;6.60;;
6755;SDS011;3415;51.148;7.014;2022-12-16T02:36:14;31.27;;;8.67;;
6755;SDS011;3415;51.148;7.014;2022-12-16T02:38:53;19.60;;;9.27;;
6755;SDS011;3415;51.148;7.014;2022-12-16T02:41:28;26.93;;;10.03;;
6755;SDS011;3415;51.148;7.014;2022-12-16T02:44:03;19.33;;;8.57;;
6755;SDS011;3415;51.148;7.014;2022-12-16T02:46:37;11.20;;;6.67;;
6755;SDS011;3415;51.148;7.014;2022-12-16T02:49:07;18.57;;;8.67;;
6755;SDS011;3415;51.148;7.014;2022-12-16T02:52:07;17.40;;;8.50;;
6755;SDS011;3415;51.148;7.014;2022-12-16T02:54:34;31.57;;;10.57;;
6755;SDS011;3415;51.148;7.014;2022-12-16T02:57:03;20.90;;;7.47;;
6755;SDS011;3415;51.148;7.014;2022-12-16T02:59:50;16.23;;;6.33;;
6755;SDS011;3415;51.148;7.014;2022-12-16T03:02:28;13.97;;;6.00;;
6755;SDS011;3415;51.148;7.014;2022-12-16T03:05:03;30.20;;;9.30;;
6755;SDS011;3415;51.148;7.014;2022-12-16T03:07:35;23.13;;;7.53;;
6755;SDS011;3415;51.148;7.014;2022-12-16T03:10:05;23.90;;;7.97;;
6755;SDS011;3415;51.148;7.014;2022-12-16T03:12:37;21.83;;;9.77;;
6755;SDS011;3415;51.148;7.014;2022-12-16T03:15:07;23.30;;;8.17;;
6755;SDS011;3415;51.148;7.014;2022-12-16T03:17:38;15.93;;;8.20;;
6755;SDS011;3415;51.148;7.014;2022-12-16T03:20:08;23.83;;;7.63;;
6755;SDS011;3415;51.148;7.014;2022-12-16T03:22:39;18.80;;;6.70;;
6755;SDS011;3415;51.148;7.014;2022-12-16T03:25:10;12.10;;;7.50;;
6755;SDS011;3415;51.148;7.014;2022-12-16T03:27:38;13.00;;;7.07;;
6755;SDS011;3415;51.148;7.014;2022-12-16T03:30:12;15.73;;;6.60;;
6755;SDS011;3415;51.148;7.014;2022-12-16T03:32:45;16.90;;;6.20;;
6755;SDS011;3415;51.148;7.014;2022-12-16T03:35:18;21.17;;;7.87;;
6755;SDS011;3415;51.148;7.014;2022-12-16T03:37:48;21.13;;;7.27;;
6755;SDS011;3415;51.148;7.014;2022-12-16T03:40:20;23.53;;;6.97;;
6755;SDS011;3415;51.148;7.014;2022-12-16T03:42:49;20.10;;;7.73;;
6755;SDS011;3415;51.148;7.014;2022-12-16T03:45:19;13.23;;;6.43;;
6755;SDS011;3415;51.148;7.014;2022-12-16T03:47:51;16.47;;;7.40;;
6755;SDS011;3415;51.148;7.014;2022-12-16T03:50:22;31.23;;;10.10;;
6755;SDS011;3415;51.148;7.014;2022-12-16T03:52:54;14.53;;;6.67;;
6755;SDS011;3415;51.148;7.014;2022-12-16T03:55:21;16.30;;;6.50;;
6755;SDS011;3415;51.148;7.014;2022-12-16T03:57:48;30.07;;;9.00;;
6755;SDS011;3415;51.148;7.014;2022-12-16T04:00:16;18.00;;;7.60;;
6755;SDS011;3415;51.148;7.014;2022-12-16T04:02:43;16.40;;;8.03;;
6755;SDS011;3415;51.148;7.014;2022-12-16T04:05:12;19.37;;;7.60;;
6755;SDS011;3415;51.148;7.014;2022-12-16T04:07:39;16.00;;;6.83;;
6755;SDS011;3415;51.148;7.014;2022-12-16T04:10:07;20.73;;;7.10;;
6755;SDS011;3415;51.148;7.014;2022-12-16T04:12:35;11.77;;;6.07;;
6755;SDS011;3415;51.148;7.014;2022-12-16T04:15:19;12.23;;;6.37;;
6755;SDS011;3415;51.148;7.014;2022-12-16T04:18:05;12.87;;;5.50;;
6755;SDS011;3415;51.148;7.014;2022-12-16T04:20:56;13.30;;;5.20;;
6755;SDS011;3415;51.148;7.014;2022-12-16T04:23:41;25.57;;;8.87;;
6755;SDS011;3415;51.148;7.014;2022-12-16T04:26:31;27.93;;;6.80;;
6755;SDS011;3415;51.148;7.014;2022-12-16T04:29:19;13.90;;;6.13;;
6755;SDS011;3415;51.148;7.014;2022-12-16T04:31:46;13.90;;;6.80;;
6755;SDS011;3415;51.148;7.014;2022-12-16T04:34:14;11.50;;;5.97;;
6755;SDS011;3415;51.148;7.014;2022-12-16T04:36:55;17.07;;;6.57;;
6755;SDS011;3415;51.148;7.014;2022-12-16T04:39:42;14.67;;;5.70;;
6755;SDS011;3415;51.148;7.014;2022-12-16T04:42:27;14.37;;;6.03;;
6755;SDS011;3415;51.148;7.014;2022-12-16T04:45:12;14.63;;;5.77;;
6755;SDS011;3415;51.148;7.014;2022-12-16T04:47:57;12.00;;;5.10;;
6755;SDS011;3415;51.148;7.014;2022-12-16T04:50:41;14.47;;;5.60;;
6755;SDS011;3415;51.148;7.014;2022-12-16T04:53:34;9.20;;;5.10;;
6755;SDS011;3415;51.148;7.014;2022-12-16T04:56:18;10.47;;;5.87;;
6755;SDS011;3415;51.148;7.014;2022-12-16T04:59:03;19.07;;;6.87;;
6755;SDS011;3415;51.148;7.014;2022-12-16T05:01:44;8.83;;;5.13;;
6755;SDS011;3415;51.148;7.014;2022-12-16T05:04:28;17.50;;;6.23;;
6755;SDS011;3415;51.148;7.014;2022-12-16T05:07:13;23.20;;;5.43;;
6755;SDS011;3415;51.148;7.014;2022-12-16T05:09:59;13.57;;;5.03;;
6755;SDS011;3415;51.148;7.014;2022-12-16T05:12:43;13.70;;;5.90;;
6755;SDS011;3415;51.148;7.014;2022-12-16T05:15:28;13.60;;;6.20;;
6755;SDS011;3415;51.148;7.014;2022-12-16T05:18:13;9.40;;;5.40;;
6755;SDS011;3415;51.148;7.014;2022-12-16T05:21:00;12.23;;;4.77;;
6755;SDS011;3415;51.148;7.014;2022-12-16T05:23:45;12.83;;;6.23;;
6755;SDS011;3415;51.148;7.014;2022-12-16T05:26:32;13.57;;;4.60;;
6755;SDS011;3415;51.148;7.014;2022-12-16T05:29:16;15.37;;;5.87;;
6755;SDS011;3415;51.148;7.014;2022-12-16T05:32:01;16.90;;;6.07;;
6755;SDS011;3415;51.148;7.014;2022-12-16T05:34:46;23.70;;;6.13;;
6755;SDS011;3415;51.148;7.014;2022-12-16T05:37:30;13.10;;;5.13;;
6755;SDS011;3415;51.148;7.014;2022-12-16T05:40:15;14.10;;;5.10;;
6755;SDS011;3415;51.148;7.014;2022-12-16T05:43:01;8.27;;;3.90;;
6755;SDS011;3415;51.148;7.014;2022-12-16T05:45:45;16.77;;;5.10;;
6755;SDS011;3415;51.148;7.014;2022-12-16T05:48:30;10.17;;;5.37;;
6755;SDS011;3415;51.148;7.014;2022-12-16T05:51:14;12.37;;;6.40;;
6755;SDS011;3415;51.148;7.014;2022-12-16T05:53:59;10.03;;;5.97;;
6755;SDS011;3415;51.148;7.014;2022-12-16T05:56:43;17.90;;;7.57;;
6755;SDS011;3415;51.148;7.014;2022-12-16T05:59:29;13.70;;;4.80;;
6755;SDS011;3415;51.148;7.014;2022-12-16T06:02:14;13.90;;;5.60;;
6755;SDS011;3415;51.148;7.014;2022-12-16T06:04:58;17.90;;;5.40;;
6755;SDS011;3415;51.148;7.014;2022-12-16T06:07:48;31.57;;;6.83;;
6755;SDS011;3415;51.148;7.014;2022-12-16T06:10:34;12.17;;;4.20;;
6755;SDS011;3415;51.148;7.014;2022-12-16T06:13:30;13.80;;;5.87;;
6755;SDS011;3415;51.148;7.014;2022-12-16T06:16:16;10.77;;;5.00;;
6755;SDS011;3415;51.148;7.014;2022-12-16T06:19:01;17.13;;;5.97;;
6755;SDS011;3415;51.148;7.014;2022-12-16T06:21:45;22.77;;;6.23;;
6755;SDS011;3415;51.148;7.014;2022-12-16T06:24:29;11.53;;;5.10;;
6755;SDS011;3415;51.148;7.014;2022-12-16T06:27:14;16.00;;;6.83;;
6755;SDS011;3415;51.148;7.014;2022-12-16T06:30:00;17.77;;;6.40;;
6755;SDS011;3415;51.148;7.014;2022-12-16T06:32:47;20.53;;;8.17;;
6755;SDS011;3415;51.148;7.014;2022-12-16T06:35:31;13.73;;;6.47;;
6755;SDS011;3415;51.148;7.014;2022-12-16T06:38:27;38.63;;;8.40;;
6755;SDS011;3415;51.148;7.014;2022-12-16T06:41:12;9.90;;;5.80;;
6755;SDS011;3415;51.148;7.014;2022-12-16T06:43:56;10.83;;;5.20;;
6755;SDS011;3415;51.148;7.014;2022-12-16T06:46:41;21.30;;;7.40;;
6755;SDS011;3415;51.148;7.014;2022-12-16T06:49:27;21.60;;;6.83;;
6755;SDS011;3415;51.148;7.014;2022-12-16T06:52:11;14.17;;;6.17;;
6755;SDS011;3415;51.148;7.014;2022-12-16T06:54:55;14.83;;;5.00;;
6755;SDS011;3415;51.148;7.014;2022-12-16T06:57:39;15.47;;;6.77;;
6755;SDS011;3415;51.148;7.014;2022-12-16T07:00:25;8.93;;;5.20;;
6755;SDS011;3415;51.148;7.014;2022-12-16T07:03:09;11.80;;;6.73;;
6755;SDS011;3415;51.148;7.014;2022-12-16T07:05:55;22.43;;;7.17;;
6755;SDS011;3415;51.148;7.014;2022-12-16T07:08:40;19.50;;;7.70;;
6755;SDS011;3415;51.148;7.014;2022-12-16T07:11:24;12.37;;;6.23;;
6755;SDS011;3415;51.148;7.014;2022-12-16T07:14:10;19.37;;;6.70;;
6755;SDS011;3415;51.148;7.014;2022-12-16T07:16:57;26.10;;;8.20;;
6755;SDS011;3415;51.148;7.014;2022-12-16T07:19:44;10.53;;;6.10;;
6755;SDS011;3415;51.148;7.014;2022-12-16T07:22:34;14.70;;;5.97;;
6755;SDS011;3415;51.148;7.014;2022-12-16T07:25:18;15.37;;;6.03;;
6755;SDS011;3415;51.148;7.014;2022-12-16T07:28:03;13.00;;;5.03;;
6755;SDS011;3415;51.148;7.014;2022-12-16T07:30:48;16.23;;;5.90;;
6755;SDS011;3415;51.148;7.014;2022-12-16T07:33:33;14.93;;;5.70;;
6755;SDS011;3415;51.148;7.014;2022-12-16T07:36:17;14.03;;;5.10;;
6755;SDS011;3415;51.148;7.014;2022-12-16T07:39:03;13.90;;;5.63;;
6755;SDS011;3415;51.148;7.014;2022-12-16T07:41:48;16.33;;;4.73;;
6755;SDS011;3415;51.148;7.014;2022-12-16T07:44:32;19.47;;;7.20;;
6755;SDS011;3415;51.148;7.014;2022-12-16T07:47:17;8.60;;;4.10;;
6755;SDS011;3415;51.148;7.014;2022-12-16T07:50:02;18.70;;;6.43;;
6755;SDS011;3415;51.148;7.014;2022-12-16T07:52:52;18.47;;;8.60;;
6755;SDS011;3415;51.148;7.014;2022-12-16T07:55:41;16.40;;;5.90;;
6755;SDS011;3415;51.148;7.014;2022-12-16T07:58:26;20.93;;;6.23;;
6755;SDS011;3415;51.148;7.014;2022-12-16T08:01:07;12.90;;;5.97;;
6755;SDS011;3415;51.148;7.014;2022-12-16T08:04:01;17.10;;;6.53;;
6755;SDS011;3415;51.148;7.014;2022-12-16T08:06:46;19.30;;;8.17;;
6755;SDS011;3415;51.148;7.014;2022-12-16T08:09:31;14.07;;;4.70;;
6755;SDS011;3415;51.148;7.014;2022-12-16T08:12:17;17.10;;;6.53;;
6755;SDS011;3415;51.148;7.014;2022-12-16T08:15:01;22.13;;;6.10;;
6755;SDS011;3415;51.148;7.014;2022-12-16T08:17:47;7.90;;;4.03;;
6755;SDS011;3415;51.148;7.014;2022-12-16T08:20:32;8.47;;;4.30;;
6755;SDS011;3415;51.148;7.014;2022-12-16T08:23:27;11.27;;;4.50;;
6755;SDS011;3415;51.148;7.014;2022-12-16T08:26:11;18.03;;;6.10;;
6755;SDS011;3415;51.148;7.014;2022-12-16T08:28:56;20.97;;;8.13;;
6755;SDS011;3415;51.148;7.014;2022-12-16T08:31:40;13.30;;;6.37;;
6755;SDS011;3415;51.148;7.014;2022-12-16T08:34:24;12.60;;;5.60;;
6755;SDS011;3415;51.148;7.014;2022-12-16T08:37:09;18.97;;;7.47;;
6755;SDS011;3415;51.148;7.014;2022-12-16T08:39:54;11.30;;;6.13;;
6755;SDS011;3415;51.148;7.014;2022-12-16T08:42:39;9.50;;;5.80;;
6755;SDS011;3415;51.148;7.014;2022-12-16T08:45:23;14.33;;;6.43;;
6755;SDS011;3415;51.148;7.014;2022-12-16T08:48:08;15.10;;;7.50;;
6755;SDS011;3415;51.148;7.014;2022-12-16T08:50:52;23.77;;;9.30;;
6755;SDS011;3415;51.148;7.014;2022-12-16T08:53:37;25.53;;;8.33;;
6755;SDS011;3415;51.148;7.014;2022-12-16T08:56:23;22.80;;;8.33;;
6755;SDS011;3415;51.148;7.014;2022-12-16T08:59:07;17.40;;;5.00;;
6755;SDS011;3415;51.148;7.014;2022-12-16T09:01:51;15.23;;;7.17;;
6755;SDS011;3415;51.148;7.014;2022-12-16T09:04:35;11.77;;;5.00;;
6755;SDS011;3415;51.148;7.014;2022-12-16T09:07:20;28.10;;;7.20;;
6755;SDS011;3415;51.148;7.014;2022-12-16T09:10:05;24.83;;;11.87;;
6755;SDS011;3415;51.148;7.014;2022-12-16T09:12:51;33.07;;;10.70;;
6755;SDS011;3415;51.148;7.014;2022-12-16T09:15:50;20.80;;;10.93;;
6755;SDS011;3415;51.148;7.014;2022-12-16T09:18:34;16.40;;;9.70;;
6755;SDS011;3415;51.148;7.014;2022-12-16T09:21:19;17.17;;;7.53;;
6755;SDS011;3415;51.148;7.014;2022-12-16T09:24:04;21.80;;;10.33;;
6755;SDS011;3415;51.148;7.014;2022-12-16T09:26:48;21.20;;;8.70;;
6755;SDS011;3415;51.148;7.014;2022-12-16T09:29:45;27.80;;;9.73;;
6755;SDS011;3415;51.148;7.014;2022-12-16T09:32:29;20.67;;;9.47;;
6755;SDS011;3415;51.148;7.014;2022-12-16T09:35:14;19.10;;;7.80;;
6755;SDS011;3415;51.148;7.014;2022-12-16T09:37:58;21.43;;;8.43;;
6755;SDS011;3415;51.148;7.014;2022-12-16T09:40:43;19.17;;;8.90;;
6755;SDS011;3415;51.148;7.014;2022-12-16T09:43:40;21.87;;;10.60;;
6755;SDS011;3415;51.148;7.014;2022-12-16T09:46:36;28.10;;;10.97;;
6755;SDS011;3415;51.148;7.014;2022-12-16T09:49:40;21.43;;;10.33;;
6755;SDS011;3415;51.148;7.014;2022-12-16T09:52:30;25.17;;;11.00;;
6755;SDS011;3415;51.148;7.014;2022-12-16T09:55:21;19.23;;;9.67;;
6755;SDS011;3415;51.148;7.014;2022-12-16T09:58:08;17.27;;;8.40;;
6755;SDS011;3415;51.148;7.014;2022-12-16T10:00:54;27.30;;;12.03;;
6755;SDS011;3415;51.148;7.014;2022-12-16T10:03:41;19.23;;;10.10;;
6755;SDS011;3415;51.148;7.014;2022-12-16T10:06:30;22.20;;;10.30;;
6755;SDS011;3415;51.148;7.014;2022-12-16T10:09:22;23.50;;;9.70;;
6755;SDS011;3415;51.148;7.014;2022-12-16T10:12:09;32.50;;;11.07;;
6755;SDS011;3415;51.148;7.014;2022-12-16T10:15:02;24.03;;;10.80;;
6755;SDS011;3415;51.148;7.014;2022-12-16T10:17:57;20.27;;;10.47;;
6755;SDS011;3415;51.148;7.014;2022-12-16T10:20:48;24.47;;;10.43;;
6755;SDS011;3415;51.148;7.014;2022-12-16T10:23:37;31.33;;;12.60;;
6755;SDS011;3415;51.148;7.014;2022-12-16T10:26:39;31.40;;;12.37;;
6755;SDS011;3415;51.148;7.014;2022-12-16T10:29:30;26.60;;;11.70;;
6755;SDS011;3415;51.148;7.014;2022-12-16T10:32:21;28.63;;;12.27;;
6755;SDS011;3415;51.148;7.014;2022-12-16T10:35:15;25.23;;;11.03;;
6755;SDS011;3415;51.148;7.014;2022-12-16T10:38:05;26.70;;;10.63;;
6755;SDS011;3415;51.148;7.014;2022-12-16T10:40:58;25.63;;;11.07;;
6755;SDS011;3415;51.148;7.014;2022-12-16T10:43:44;24.93;;;11.47;;
6755;SDS011;3415;51.148;7.014;2022-12-16T10:46:32;29.40;;;11.87;;
6755;SDS011;3415;51.148;7.014;2022-12-16T10:49:17;22.00;;;11.87;;
6755;SDS011;3415;51.148;7.014;2022-12-16T10:52:03;22.87;;;11.97;;
6755;SDS011;3415;51.148;7.014;2022-12-16T10:54:53;23.37;;;12.03;;
6755;SDS011;3415;51.148;7.014;2022-12-16T10:57:47;29.73;;;13.00;;
6755;SDS011;3415;51.148;7.014;2022-12-16T11:00:40;22.40;;;11.63;;
6755;SDS011;3415;51.148;7.014;2022-12-16T11:03:27;24.07;;;12.77;;
6755;SDS011;3415;51.148;7.014;2022-12-16T11:06:14;20.90;;;11.03;;
6755;SDS011;3415;51.148;7.014;2022-12-16T11:09:15;22.83;;;12.50;;
6755;SDS011;3415;51.148;7.014;2022-12-16T11:15:20;46.47;;;19.67;;
6755;SDS011;3415;51.148;7.014;2022-12-16T11:18:08;36.30;;;17.23;;
6755;SDS011;3415;51.148;7.014;2022-12-16T11:21:05;31.27;;;13.43;;
6755;SDS011;3415;51.148;7.014;2022-12-16T11:24:03;23.03;;;11.67;;
6755;SDS011;3415;51.148;7.014;2022-12-16T11:26:53;26.20;;;12.50;;
6755;SDS011;3415;51.148;7.014;2022-12-16T11:29:49;26.00;;;13.30;;
6755;SDS011;3415;51.148;7.014;2022-12-16T11:32:39;32.13;;;12.10;;
6755;SDS011;3415;51.148;7.014;2022-12-16T11:35:28;25.83;;;12.43;;
6755;SDS011;3415;51.148;7.014;2022-12-16T11:38:17;31.40;;;13.80;;
6755;SDS011;3415;51.148;7.014;2022-12-16T11:41:06;24.97;;;13.00;;
6755;SDS011;3415;51.148;7.014;2022-12-16T11:43:54;23.93;;;12.07;;
6755;SDS011;3415;51.148;7.014;2022-12-16T11:46:41;28.70;;;13.83;;
6755;SDS011;3415;51.148;7.014;2022-12-16T11:49:27;29.87;;;14.37;;
6755;SDS011;3415;51.148;7.014;2022-12-16T11:52:14;24.63;;;13.33;;
6755;SDS011;3415;51.148;7.014;2022-12-16T11:55:01;25.37;;;12.53;;
6755;SDS011;3415;51.148;7.014;2022-12-16T11:57:57;37.47;;;14.17;;
6755;SDS011;3415;51.148;7.014;2022-12-16T12:00:50;27.60;;;12.13;;
6755;SDS011;3415;51.148;7.014;2022-12-16T12:03:43;29.17;;;12.77;;
6755;SDS011;3415;51.148;7.014;2022-12-16T12:10:03;23.30;;;12.33;;
6755;SDS011;3415;51.148;7.014;2022-12-16T12:12:55;30.10;;;13.40;;
6755;SDS011;3415;51.148;7.014;2022-12-16T12:15:46;34.10;;;15.80;;
6755;SDS011;3415;51.148;7.014;2022-12-16T12:18:37;30.10;;;14.00;;
6755;SDS011;3415;51.148;7.014;2022-12-16T12:21:37;30.60;;;12.77;;
6755;SDS011;3415;51.148;7.014;2022-12-16T12:24:28;36.70;;;12.90;;
6755;SDS011;3415;51.148;7.014;2022-12-16T12:27:24;37.87;;;13.10;;
6755;SDS011;3415;51.148;7.014;2022-12-16T12:30:13;29.83;;;12.60;;
6755;SDS011;3415;51.148;7.014;2022-12-16T12:33:05;45.17;;;14.40;;
6755;SDS011;3415;51.148;7.014;2022-12-16T12:36:06;34.57;;;14.80;;
6755;SDS011;3415;51.148;7.014;2022-12-16T12:39:00;29.80;;;9.37;;
6755;SDS011;3415;51.148;7.014;2022-12-16T12:42:08;30.73;;;11.77;;
6755;SDS011;3415;51.148;7.014;2022-12-16T12:45:05;33.13;;;15.40;;
6755;SDS011;3415;51.148;7.014;2022-12-16T12:48:05;33.23;;;13.30;;
6755;SDS011;3415;51.148;7.014;2022-12-16T12:50:56;33.47;;;14.07;;
6755;SDS011;3415;51.148;7.014;2022-12-16T12:53:50;34.50;;;14.60;;
6755;SDS011;3415;51.148;7.014;2022-12-16T12:56:45;34.00;;;14.53;;
6755;SDS011;3415;51.148;7.014;2022-12-16T12:59:35;34.40;;;15.70;;
6755;SDS011;3415;51.148;7.014;2022-12-16T13:02:27;42.83;;;16.17;;
6755;SDS011;3415;51.148;7.014;2022-12-16T13:05:15;33.70;;;13.80;;
6755;SDS011;3415;51.148;7.014;2022-12-16T13:11:17;37.73;;;15.30;;
6755;SDS011;3415;51.148;7.014;2022-12-16T13:14:01;36.13;;;13.67;;
6755;SDS011;3415;51.148;7.014;2022-12-16T13:17:06;31.87;;;12.10;;
6755;SDS011;3415;51.148;7.014;2022-12-16T13:19:56;45.20;;;15.00;;
6755;SDS011;3415;51.148;7.014;2022-12-16T13:22:42;36.70;;;14.30;;
6755;SDS011;3415;51.148;7.014;2022-12-16T13:25:31;54.80;;;19.27;;
6755;SDS011;3415;51.148;7.014;2022-12-16T13:28:22;75.87;;;27.50;;
6755;SDS011;3415;51.148;7.014;2022-12-16T13:31:09;56.87;;;21.17;;
6755;SDS011;3415;51.148;7.014;2022-12-16T13:33:54;37.87;;;15.77;;
6755;SDS011;3415;51.148;7.014;2022-12-16T13:36:45;33.93;;;14.20;;
6755;SDS011;3415;51.148;7.014;2022-12-16T13:39:36;60.17;;;19.47;;
6755;SDS011;3415;51.148;7.014;2022-12-16T13:52:24;40.33;;;13.80;;
6755;SDS011;3415;51.148;7.014;2022-12-16T13:55:18;39.27;;;16.33;;
6755;SDS011;3415;51.148;7.014;2022-12-16T13:58:11;45.07;;;17.00;;
6755;SDS011;3415;51.148;7.014;2022-12-16T14:01:03;39.03;;;18.30;;
6755;SDS011;3415;51.148;7.014;2022-12-16T14:03:53;45.97;;;18.63;;
6755;SDS011;3415;51.148;7.014;2022-12-16T14:06:39;56.17;;;18.57;;
6755;SDS011;3415;51.148;7.014;2022-12-16T14:09:32;37.20;;;16.30;;
6755;SDS011;3415;51.148;7.014;2022-12-16T14:12:21;39.03;;;15.90;;
6755;SDS011;3415;51.148;7.014;2022-12-16T14:15:31;49.03;;;17.00;;
6755;SDS011;3415;51.148;7.014;2022-12-16T14:18:26;43.30;;;16.20;;
6755;SDS011;3415;51.148;7.014;2022-12-16T14:21:22;44.70;;;16.90;;
6755;SDS011;3415;51.148;7.014;2022-12-16T14:24:15;42.53;;;16.23;;
6755;SDS011;3415;51.148;7.014;2022-12-16T14:27:10;47.67;;;17.00;;
6755;SDS011;3415;51.148;7.014;2022-12-16T14:29:56;37.67;;;16.03;;
6755;SDS011;3415;51.148;7.014;2022-12-16T14:32:41;37.90;;;18.77;;
6755;SDS011;3415;51.148;7.014;2022-12-16T14:35:26;42.93;;;16.50;;
6755;SDS011;3415;51.148;7.014;2022-12-16T14:38:21;38.27;;;16.50;;
6755;SDS011;3415;51.148;7.014;2022-12-16T14:41:11;40.63;;;16.07;;
6755;SDS011;3415;51.148;7.014;2022-12-16T14:43:57;46.20;;;19.07;;
6755;SDS011;3415;51.148;7.014;2022-12-16T14:46:41;47.13;;;17.67;;
6755;SDS011;3415;51.148;7.014;2022-12-16T14:49:31;41.97;;;18.37;;
6755;SDS011;3415;51.148;7.014;2022-12-16T14:52:17;43.93;;;18.60;;
6755;SDS011;3415;51.148;7.014;2022-12-16T14:55:08;47.10;;;20.77;;
6755;SDS011;3415;51.148;7.014;2022-12-16T14:58:00;44.97;;;17.27;;
6755;SDS011;3415;51.148;7.014;2022-12-16T15:00:46;52.97;;;18.80;;
6755;SDS011;3415;51.148;7.014;2022-12-16T15:03:32;56.60;;;20.07;;
6755;SDS011;3415;51.148;7.014;2022-12-16T15:06:22;44.27;;;18.80;;
6755;SDS011;3415;51.148;7.014;2022-12-16T15:09:11;41.47;;;17.73;;
6755;SDS011;3415;51.148;7.014;2022-12-16T15:12:02;57.63;;;20.30;;
6755;SDS011;3415;51.148;7.014;2022-12-16T15:14:48;47.73;;;19.00;;
6755;SDS011;3415;51.148;7.014;2022-12-16T15:17:35;49.83;;;19.20;;
6755;SDS011;3415;51.148;7.014;2022-12-16T15:20:27;39.37;;;17.50;;
6755;SDS011;3415;51.148;7.014;2022-12-16T15:23:14;42.87;;;17.20;;
6755;SDS011;3415;51.148;7.014;2022-12-16T15:26:03;38.97;;;16.57;;
6755;SDS011;3415;51.148;7.014;2022-12-16T15:28:49;62.37;;;18.67;;
6755;SDS011;3415;51.148;7.014;2022-12-16T15:31:34;52.07;;;18.07;;
6755;SDS011;3415;51.148;7.014;2022-12-16T15:34:21;38.87;;;14.20;;
6755;SDS011;3415;51.148;7.014;2022-12-16T15:37:19;62.70;;;17.93;;
6755;SDS011;3415;51.148;7.014;2022-12-16T15:40:19;45.17;;;15.93;;
6755;SDS011;3415;51.148;7.014;2022-12-16T15:43:05;44.47;;;17.57;;
6755;SDS011;3415;51.148;7.014;2022-12-16T15:46:04;64.17;;;22.10;;
6755;SDS011;3415;51.148;7.014;2022-12-16T15:48:49;50.70;;;16.20;;
6755;SDS011;3415;51.148;7.014;2022-12-16T15:51:40;59.90;;;14.80;;
6755;SDS011;3415;51.148;7.014;2022-12-16T15:54:27;32.40;;;11.07;;
6755;SDS011;3415;51.148;7.014;2022-12-16T15:57:25;59.03;;;15.37;;
6755;SDS011;3415;51.148;7.014;2022-12-16T16:00:18;36.57;;;12.10;;
6755;SDS011;3415;51.148;7.014;2022-12-16T16:03:15;68.60;;;15.40;;
6755;SDS011;3415;51.148;7.014;2022-12-16T16:06:01;42.33;;;15.57;;
6755;SDS011;3415;51.148;7.014;2022-12-16T16:08:48;33.90;;;13.47;;
6755;SDS011;3415;51.148;7.014;2022-12-16T16:11:48;51.90;;;17.07;;
6755;SDS011;3415;51.148;7.014;2022-12-16T16:14:32;55.30;;;17.90;;
6755;SDS011;3415;51.148;7.014;2022-12-16T16:17:19;47.77;;;15.20;;
6755;SDS011;3415;51.148;7.014;2022-12-16T16:20:08;52.97;;;19.30;;
6755;SDS011;3415;51.148;7.014;2022-12-16T16:22:57;49.77;;;16.33;;
6755;SDS011;3415;51.148;7.014;2022-12-16T16:25:42;56.93;;;16.50;;
6755;SDS011;3415;51.148;7.014;2022-12-16T16:28:26;47.50;;;17.20;;
6755;SDS011;3415;51.148;7.014;2022-12-16T16:31:10;42.13;;;18.67;;
6755;SDS011;3415;51.148;7.014;2022-12-16T16:34:09;57.10;;;15.73;;
6755;SDS011;3415;51.148;7.014;2022-12-16T16:36:55;72.27;;;17.97;;
6755;SDS011;3415;51.148;7.014;2022-12-16T16:39:41;59.33;;;19.23;;
6755;SDS011;3415;51.148;7.014;2022-12-16T16:42:25;100.87;;;20.00;;
6755;SDS011;3415;51.148;7.014;2022-12-16T16:45:10;86.53;;;21.80;;
6755;SDS011;3415;51.148;7.014;2022-12-16T16:47:54;66.40;;;20.47;;
6755;SDS011;3415;51.148;7.014;2022-12-16T16:50:58;48.17;;;17.77;;
6755;SDS011;3415;51.148;7.014;2022-12-16T16:53:45;58.90;;;17.17;;
6755;SDS011;3415;51.148;7.014;2022-12-16T16:56:29;84.37;;;19.00;;
6755;SDS011;3415;51.148;7.014;2022-12-16T16:59:16;66.83;;;18.00;;
6755;SDS011;3415;51.148;7.014;2022-12-16T17:02:00;55.40;;;18.63;;
6755;SDS011;3415;51.148;7.014;2022-12-16T17:04:45;73.03;;;21.37;;